createdAt,value
2022-12-11T00:00:38.472Z,6.28
2022-12-11T00:03:04.982Z,5.88
2022-12-11T00:05:31.384Z,6.35
2022-12-11T00:07:57.935Z,6.75
2022-12-11T00:10:24.850Z,6.35
2022-12-11T00:12:51.230Z,6.82
2022-12-11T00:15:17.655Z,7.03
2022-12-11T00:17:44.155Z,6.05
2022-12-11T00:20:11.069Z,6.00
2022-12-11T00:22:37.429Z,6.95
2022-12-11T00:25:04.248Z,6.65
2022-12-11T00:27:30.570Z,7.57
2022-12-11T00:29:57.079Z,6.90
2022-12-11T00:32:23.463Z,7.43
2022-12-11T00:34:49.790Z,7.63
2022-12-11T00:37:16.313Z,6.25
2022-12-11T00:39:42.773Z,6.32
2022-12-11T00:42:09.438Z,5.53
2022-12-11T00:44:36.003Z,6.60
2022-12-11T00:47:02.981Z,5.75
2022-12-11T00:49:29.642Z,6.78
2022-12-11T00:51:55.969Z,6.05
2022-12-11T00:54:22.372Z,6.32
2022-12-11T00:56:48.926Z,5.85
2022-12-11T00:59:15.305Z,5.80
2022-12-11T01:01:41.713Z,5.55
2022-12-11T01:04:08.224Z,5.93
2022-12-11T01:06:34.652Z,6.75
2022-12-11T01:09:01.061Z,6.60
2022-12-11T01:11:27.738Z,6.13
2022-12-11T01:13:54.129Z,6.65
2022-12-11T01:16:20.657Z,6.97
2022-12-11T01:18:47.068Z,7.70
2022-12-11T01:21:13.914Z,5.88
2022-12-11T01:23:40.588Z,5.40
2022-12-11T01:26:09.769Z,6.40
2022-12-11T01:28:36.550Z,5.30
2022-12-11T01:31:03.328Z,5.65
2022-12-11T01:33:29.719Z,5.32
2022-12-11T01:35:56.046Z,6.30
2022-12-11T01:38:22.461Z,5.80
2022-12-11T01:40:51.132Z,5.88
2022-12-11T01:43:18.060Z,6.95
2022-12-11T01:45:49.384Z,6.13
2022-12-11T01:48:22.653Z,5.75
2022-12-11T01:50:52.177Z,5.80
2022-12-11T01:53:24.991Z,5.75
2022-12-11T01:55:54.946Z,6.10
2022-12-11T01:58:24.800Z,5.80
2022-12-11T02:00:53.016Z,6.00
2022-12-11T02:03:19.719Z,7.80
2022-12-11T02:05:46.115Z,6.68
2022-12-11T02:08:12.623Z,6.18
2022-12-11T02:11:03.796Z,7.22
2022-12-11T02:13:38.074Z,6.28
2022-12-11T02:16:26.476Z,6.28
2022-12-11T02:19:02.831Z,6.82
2022-12-11T02:21:38.212Z,5.72
2022-12-11T02:26:53.780Z,5.30
2022-12-11T02:29:26.241Z,5.72
2022-12-11T02:32:17.365Z,5.85
2022-12-11T02:34:49.091Z,6.13
2022-12-11T02:37:20.414Z,6.45
2022-12-11T02:39:50.597Z,6.00
2022-12-11T02:42:19.247Z,5.47
2022-12-11T02:44:48.620Z,6.45
2022-12-11T02:47:17.387Z,4.95
2022-12-11T02:49:49.279Z,5.28
2022-12-11T02:52:20.935Z,5.07
2022-12-11T02:54:49.604Z,6.30
2022-12-11T02:57:34.024Z,5.03
2022-12-11T03:00:00.541Z,5.03
2022-12-11T03:02:27.344Z,5.90
2022-12-11T03:04:53.953Z,6.35
2022-12-11T03:07:27.519Z,6.38
2022-12-11T03:09:54.430Z,5.93
2022-12-11T03:12:27.462Z,5.97
2022-12-11T03:14:54.275Z,5.25
2022-12-11T03:17:26.993Z,6.30
2022-12-11T03:20:00.684Z,6.85
2022-12-11T03:22:44.968Z,5.55
2022-12-11T03:25:19.113Z,5.68
2022-12-11T03:27:57.255Z,5.78
2022-12-11T03:30:28.773Z,5.63
2022-12-11T03:33:09.128Z,5.95
2022-12-11T03:35:48.935Z,5.68
2022-12-11T03:38:21.091Z,5.22
2022-12-11T03:40:51.546Z,6.25
2022-12-11T03:43:21.203Z,6.00
2022-12-11T03:45:50.548Z,5.13
2022-12-11T03:48:18.615Z,5.38
2022-12-11T03:50:48.151Z,5.55
2022-12-11T03:53:14.985Z,5.80
2022-12-11T03:55:41.999Z,5.28
2022-12-11T03:58:08.536Z,5.07
2022-12-11T04:00:35.001Z,5.35
2022-12-11T04:03:01.402Z,4.75
2022-12-11T04:05:27.698Z,5.13
2022-12-11T04:07:54.263Z,5.90
2022-12-11T04:10:20.723Z,6.72
2022-12-11T04:12:47.105Z,4.75
2022-12-11T04:15:13.826Z,5.18
2022-12-11T04:17:40.173Z,5.53
2022-12-11T04:20:07.628Z,5.72
2022-12-11T04:22:33.965Z,4.40
2022-12-11T04:25:01.643Z,5.38
2022-12-11T04:27:28.014Z,5.38
2022-12-11T04:29:54.610Z,5.00
2022-12-11T04:32:20.924Z,5.38
2022-12-11T04:34:47.446Z,4.00
2022-12-11T04:37:13.834Z,4.82
2022-12-11T04:39:40.195Z,4.32
2022-12-11T04:42:06.578Z,4.35
2022-12-11T04:44:33.673Z,5.53
2022-12-11T04:47:00.102Z,4.22
2022-12-11T04:49:26.665Z,4.90
2022-12-11T04:51:53.347Z,4.90
2022-12-11T04:54:19.679Z,4.25
2022-12-11T04:56:46.359Z,5.45
2022-12-11T04:59:12.892Z,5.10
2022-12-11T05:01:39.587Z,5.07
2022-12-11T05:04:06.293Z,4.43
2022-12-11T05:06:32.940Z,4.20
2022-12-11T05:08:59.338Z,4.68
2022-12-11T05:11:25.728Z,4.10
2022-12-11T05:13:52.116Z,4.15
2022-12-11T05:16:18.552Z,4.28
2022-12-11T05:18:45.628Z,4.00
2022-12-11T05:21:14.155Z,4.35
2022-12-11T05:23:42.192Z,4.40
2022-12-11T05:26:12.751Z,4.28
2022-12-11T05:28:41.368Z,4.50
2022-12-11T05:31:14.530Z,4.50
2022-12-11T05:33:40.997Z,4.97
2022-12-11T05:36:08.524Z,3.72
2022-12-11T05:38:35.345Z,4.65
2022-12-11T05:41:07.593Z,4.53
2022-12-11T05:43:36.203Z,4.68
2022-12-11T05:46:27.908Z,5.07
2022-12-11T05:48:57.350Z,4.07
2022-12-11T05:51:24.258Z,4.57
2022-12-11T05:53:52.948Z,5.13
2022-12-11T05:56:25.386Z,5.25
2022-12-11T05:58:52.977Z,4.43
2022-12-11T06:01:25.399Z,4.22
2022-12-11T06:03:53.058Z,5.05
2022-12-11T06:06:19.710Z,4.57
2022-12-11T06:08:46.403Z,4.80
2022-12-11T06:11:13.877Z,4.57
2022-12-11T06:13:40.683Z,4.40
2022-12-11T06:16:08.480Z,5.35
2022-12-11T06:18:40.167Z,4.78
2022-12-11T06:21:25.380Z,4.97
2022-12-11T06:23:54.182Z,4.40
2022-12-11T06:26:21.642Z,4.18
2022-12-11T06:28:48.997Z,5.25
2022-12-11T06:31:15.808Z,5.53
2022-12-11T06:33:43.057Z,4.00
2022-12-11T06:36:12.759Z,4.70
2022-12-11T06:38:39.273Z,4.90
2022-12-11T06:41:07.866Z,4.88
2022-12-11T06:43:36.529Z,5.20
2022-12-11T06:46:07.882Z,4.55
2022-12-11T06:48:34.505Z,4.68
2022-12-11T06:51:05.787Z,4.65
2022-12-11T06:53:32.245Z,4.30
2022-12-11T06:56:04.009Z,5.75
2022-12-11T06:58:30.568Z,4.70
2022-12-11T07:00:57.353Z,5.05
2022-12-11T07:03:23.935Z,5.93
2022-12-11T07:05:50.621Z,4.97
2022-12-11T07:08:17.514Z,3.67
2022-12-11T07:10:44.214Z,5.60
2022-12-11T07:13:11.544Z,5.30
2022-12-11T07:15:40.502Z,5.65
2022-12-11T07:18:07.009Z,4.63
2022-12-11T07:20:33.628Z,4.68
2022-12-11T07:23:00.022Z,4.57
2022-12-11T07:25:26.394Z,3.17
2022-12-11T07:27:52.741Z,3.50
2022-12-11T07:30:19.138Z,3.28
2022-12-11T07:32:45.477Z,3.30
2022-12-11T07:35:12.129Z,3.00
2022-12-11T07:37:41.193Z,3.45
2022-12-11T07:40:08.450Z,2.97
2022-12-11T07:42:35.149Z,3.20
2022-12-11T07:45:01.777Z,3.20
2022-12-11T07:47:28.109Z,3.22
2022-12-11T07:49:54.422Z,2.53
2022-12-11T07:52:20.953Z,2.85
2022-12-11T07:54:47.314Z,3.03
2022-12-11T07:57:14.360Z,3.05
2022-12-11T07:59:40.851Z,3.45
2022-12-11T08:02:09.065Z,3.85
2022-12-11T08:04:35.608Z,3.22
2022-12-11T08:07:01.943Z,2.35
2022-12-11T08:09:28.264Z,2.67
2022-12-11T08:11:54.984Z,3.05
2022-12-11T08:14:21.384Z,3.00
2022-12-11T08:16:49.562Z,3.00
2022-12-11T08:19:16.731Z,3.20
2022-12-11T08:21:43.531Z,2.33
2022-12-11T08:24:10.110Z,3.28
2022-12-11T08:26:37.065Z,2.40
2022-12-11T08:29:03.675Z,3.05
2022-12-11T08:31:30.466Z,3.33
2022-12-11T08:33:57.903Z,3.90
2022-12-11T08:36:25.262Z,3.28
2022-12-11T08:38:54.922Z,4.15
2022-12-11T08:41:23.790Z,3.33
2022-12-11T08:43:50.686Z,4.50
2022-12-11T08:46:17.052Z,2.65
2022-12-11T08:48:43.859Z,3.72
2022-12-11T08:51:15.905Z,3.38
2022-12-11T08:53:43.247Z,2.55
2022-12-11T08:56:15.658Z,3.88
2022-12-11T08:58:42.648Z,3.30
2022-12-11T09:01:11.144Z,3.25
2022-12-11T09:03:38.838Z,3.08
2022-12-11T09:06:11.354Z,2.70
2022-12-11T09:08:38.101Z,3.33
2022-12-11T09:11:10.486Z,2.83
2022-12-11T09:13:37.854Z,3.78
2022-12-11T09:16:10.428Z,2.70
2022-12-11T09:18:38.271Z,3.40
2022-12-11T09:21:09.609Z,3.00
2022-12-11T09:23:36.431Z,3.15
2022-12-11T09:26:10.648Z,3.30
2022-12-11T09:28:41.358Z,2.88
2022-12-11T09:31:13.895Z,2.75
2022-12-11T09:33:40.708Z,3.42
2022-12-11T09:36:08.979Z,2.78
2022-12-11T09:38:36.280Z,3.13
2022-12-11T09:41:17.198Z,3.45
2022-12-11T09:44:16.201Z,2.95
2022-12-11T09:46:43.352Z,3.78
2022-12-11T09:49:25.751Z,2.58
2022-12-11T09:52:17.747Z,3.30
2022-12-11T09:54:50.036Z,3.65
2022-12-11T09:57:37.477Z,3.45
2022-12-11T10:00:26.331Z,3.72
2022-12-11T10:03:11.786Z,3.08
2022-12-11T10:06:04.569Z,4.05
2022-12-11T10:08:34.302Z,4.20
2022-12-11T10:11:32.448Z,4.22
2022-12-11T10:14:10.485Z,3.75
2022-12-11T10:16:49.587Z,4.90
2022-12-11T10:19:29.070Z,3.95
2022-12-11T10:21:56.494Z,5.05
2022-12-11T10:25:10.050Z,7.00
2022-12-11T10:27:34.445Z,5.10
2022-12-11T10:30:17.505Z,5.63
2022-12-11T10:33:06.539Z,4.63
2022-12-11T10:35:42.382Z,4.63
2022-12-11T10:38:30.026Z,6.05
2022-12-11T10:41:11.855Z,6.20
2022-12-11T10:43:42.888Z,7.88
2022-12-11T10:46:17.616Z,5.78
2022-12-11T10:48:56.216Z,5.45
2022-12-11T10:51:30.855Z,6.18
2022-12-11T10:54:07.184Z,5.63
2022-12-11T10:56:37.404Z,5.93
2022-12-11T10:59:04.073Z,5.55
2022-12-11T11:01:32.519Z,4.80
2022-12-11T11:04:04.109Z,4.22
2022-12-11T11:06:30.652Z,3.92
2022-12-11T11:08:58.534Z,4.07
2022-12-11T11:11:34.289Z,3.97
2022-12-11T11:14:21.123Z,4.55
2022-12-11T11:16:50.146Z,3.50
2022-12-11T11:19:32.634Z,4.20
2022-12-11T11:22:02.536Z,4.03
2022-12-11T11:24:36.806Z,3.58
2022-12-11T11:27:13.522Z,3.42
2022-12-11T11:29:41.427Z,4.00
2022-12-11T11:32:17.760Z,6.50
2022-12-11T11:34:44.140Z,5.65
2022-12-11T11:37:46.443Z,4.22
2022-12-11T11:40:36.942Z,6.28
2022-12-11T11:43:19.246Z,4.93
2022-12-11T11:45:53.489Z,4.63
2022-12-11T11:48:58.615Z,4.72
2022-12-11T11:51:32.047Z,6.32
2022-12-11T11:54:02.970Z,5.18
2022-12-11T11:56:35.020Z,6.35
2022-12-11T11:59:17.747Z,5.18
2022-12-11T12:01:44.188Z,5.47
2022-12-11T12:04:11.310Z,5.63
2022-12-11T12:07:02.789Z,6.28
2022-12-11T12:09:52.872Z,5.55
2022-12-11T12:12:50.325Z,6.03
2022-12-11T12:15:35.793Z,5.95
2022-12-11T12:18:13.974Z,5.63
2022-12-11T12:20:54.647Z,8.30
2022-12-11T12:23:36.885Z,7.03
2022-12-11T12:26:17.170Z,6.47
2022-12-11T12:28:55.690Z,7.30
2022-12-11T12:31:50.994Z,7.90
2022-12-11T12:34:31.860Z,6.25
2022-12-11T12:37:21.559Z,7.68
2022-12-11T12:39:53.525Z,9.13
2022-12-11T12:42:34.123Z,8.43
2022-12-11T12:45:05.351Z,6.65
2022-12-11T12:47:35.506Z,6.00
2022-12-11T12:50:03.909Z,6.13
2022-12-11T12:52:38.944Z,6.78
2022-12-11T12:55:19.243Z,9.02
2022-12-11T12:57:57.250Z,10.02
2022-12-11T13:00:35.476Z,7.95
2022-12-11T13:03:13.398Z,8.95
2022-12-11T13:05:43.200Z,6.57
2022-12-11T13:08:11.020Z,7.95
2022-12-11T13:10:40.000Z,7.90
2022-12-11T13:13:32.547Z,7.38
2022-12-11T13:16:17.092Z,6.50
2022-12-11T13:18:45.689Z,6.05
2022-12-11T13:21:33.732Z,6.35
2022-12-11T13:24:16.637Z,7.13
2022-12-11T13:26:43.702Z,7.15
2022-12-11T13:29:28.832Z,7.40
2022-12-11T13:32:22.613Z,6.30
2022-12-11T13:35:00.181Z,5.60
2022-12-11T13:37:33.648Z,7.43
2022-12-11T13:40:04.442Z,8.52
2022-12-11T13:42:54.350Z,7.97
2022-12-11T13:45:51.465Z,6.38
2022-12-11T13:48:27.027Z,7.63
2022-12-11T13:50:53.862Z,8.18
2022-12-11T13:53:21.871Z,7.75
2022-12-11T13:56:02.272Z,7.97
2022-12-11T13:58:30.127Z,7.45
2022-12-11T14:01:07.243Z,7.72
2022-12-11T14:03:34.811Z,6.32
2022-12-11T14:06:02.558Z,6.57
2022-12-11T14:08:38.163Z,5.65
2022-12-11T14:11:05.599Z,7.45
2022-12-11T14:13:41.070Z,5.93
2022-12-11T14:16:08.045Z,7.97
2022-12-11T14:18:36.494Z,5.85
2022-12-11T14:21:06.098Z,5.72
2022-12-11T14:23:35.586Z,7.85
2022-12-11T14:26:24.715Z,7.75
2022-12-11T14:28:52.718Z,8.10
2022-12-11T14:31:29.092Z,8.65
2022-12-11T14:34:03.072Z,8.27
2022-12-11T14:36:31.700Z,7.55
2022-12-11T14:39:06.293Z,8.30
2022-12-11T14:41:45.417Z,7.82
2022-12-11T14:44:15.343Z,7.50
2022-12-11T14:46:48.050Z,6.57
2022-12-11T14:49:45.088Z,7.07
2022-12-11T14:52:43.094Z,8.38
2022-12-11T14:55:17.778Z,5.97
2022-12-11T14:57:48.864Z,7.47
2022-12-11T15:00:34.141Z,7.50
2022-12-11T15:03:11.631Z,6.82
2022-12-11T15:05:52.857Z,6.72
2022-12-11T15:08:29.041Z,5.82
2022-12-11T15:11:08.536Z,6.55
2022-12-11T15:13:37.612Z,5.30
2022-12-11T15:16:07.478Z,6.15
2022-12-11T15:18:36.504Z,6.95
2022-12-11T15:21:05.501Z,5.25
2022-12-11T15:23:32.030Z,6.05
2022-12-11T15:26:00.850Z,6.03
2022-12-11T15:28:33.991Z,6.35
2022-12-11T15:31:03.562Z,6.18
2022-12-11T15:33:34.292Z,6.47
2022-12-11T15:36:06.909Z,6.05
2022-12-11T15:38:38.628Z,5.38
2022-12-11T15:41:06.460Z,5.80
2022-12-11T15:43:37.550Z,6.22
2022-12-11T15:46:05.658Z,6.05
2022-12-11T15:48:34.679Z,6.40
2022-12-11T15:51:01.441Z,6.47
2022-12-11T15:53:28.114Z,5.57
2022-12-11T15:55:54.993Z,6.53
2022-12-11T15:58:23.881Z,6.70
2022-12-11T16:00:50.947Z,7.00
2022-12-11T16:03:19.156Z,6.00
2022-12-11T16:05:46.316Z,4.97
2022-12-11T16:08:15.154Z,6.13
2022-12-11T16:10:45.294Z,5.53
2022-12-11T16:13:12.926Z,5.53
2022-12-11T16:15:45.251Z,4.70
2022-12-11T16:18:14.683Z,6.78
2022-12-11T16:20:44.341Z,7.05
2022-12-11T16:23:11.694Z,7.18
2022-12-11T16:25:39.759Z,6.85
2022-12-11T16:28:07.227Z,7.63
2022-12-11T16:30:35.679Z,7.18
2022-12-11T16:33:08.593Z,8.27
2022-12-11T16:35:38.699Z,7.68
2022-12-11T16:38:05.168Z,7.95
2022-12-11T16:40:31.643Z,7.40
2022-12-11T16:42:58.172Z,6.78
2022-12-11T16:45:25.696Z,7.28
2022-12-11T16:47:53.176Z,6.72
2022-12-11T16:50:20.069Z,6.95
2022-12-11T16:52:46.629Z,6.15
2022-12-11T16:55:14.272Z,6.80
2022-12-11T16:57:41.201Z,7.00
2022-12-11T17:00:10.364Z,7.03
2022-12-11T17:02:36.731Z,7.15
2022-12-11T17:05:03.612Z,6.85
2022-12-11T17:07:31.879Z,7.90
2022-12-11T17:09:58.592Z,8.25
2022-12-11T17:12:25.069Z,6.65
2022-12-11T17:14:51.513Z,6.85
2022-12-11T17:17:17.898Z,6.78
2022-12-11T17:19:44.320Z,7.15
2022-12-11T17:22:10.625Z,7.80
2022-12-11T17:24:37.064Z,7.22
2022-12-11T17:27:03.484Z,7.25
2022-12-11T17:29:29.789Z,7.22
2022-12-11T17:31:56.118Z,6.28
2022-12-11T17:34:22.585Z,7.68
2022-12-11T17:36:48.891Z,7.22
2022-12-11T17:39:15.225Z,7.82
2022-12-11T17:41:41.756Z,7.00
2022-12-11T17:44:08.053Z,7.18
2022-12-11T17:46:34.706Z,5.60
2022-12-11T17:49:03.577Z,6.97
2022-12-11T17:51:29.912Z,7.20
2022-12-11T17:53:56.295Z,7.03
2022-12-11T17:56:23.224Z,7.28
2022-12-11T17:58:49.856Z,6.43
2022-12-11T18:01:16.818Z,6.57
2022-12-11T18:03:43.266Z,6.70
2022-12-11T18:06:13.358Z,6.78
2022-12-11T18:08:40.345Z,7.25
2022-12-11T18:11:09.537Z,8.02
2022-12-11T18:13:36.227Z,7.25
2022-12-11T18:16:05.597Z,7.13
2022-12-11T18:18:32.169Z,6.97
2022-12-11T18:20:59.329Z,7.15
2022-12-11T18:23:25.721Z,7.72
2022-12-11T18:25:53.176Z,6.60
2022-12-11T18:28:19.539Z,7.55
2022-12-11T18:30:46.666Z,6.78
2022-12-11T18:33:13.126Z,6.75
2022-12-11T18:35:40.215Z,6.20
2022-12-11T18:38:07.253Z,7.05
2022-12-11T18:40:34.192Z,7.25
2022-12-11T18:43:00.528Z,7.45
2022-12-11T18:45:27.399Z,6.78
2022-12-11T18:47:53.754Z,5.70
2022-12-11T18:50:20.241Z,7.32
2022-12-11T18:52:46.904Z,8.60
2022-12-11T18:55:13.713Z,6.85
2022-12-11T18:57:40.234Z,8.32
2022-12-11T19:00:07.326Z,7.70
2022-12-11T19:02:35.215Z,7.90
2022-12-11T19:05:01.654Z,7.88
2022-12-11T19:07:28.030Z,7.45
2022-12-11T19:09:54.623Z,8.15
2022-12-11T19:12:21.058Z,7.72
2022-12-11T19:14:47.404Z,6.85
2022-12-11T19:17:13.859Z,6.97
2022-12-11T19:19:40.276Z,7.82
2022-12-11T19:22:06.613Z,8.10
2022-12-11T19:24:33.128Z,7.00
2022-12-11T19:26:59.727Z,6.63
2022-12-11T19:29:29.018Z,7.97
2022-12-11T19:31:56.010Z,7.35
2022-12-11T19:34:23.134Z,6.82
2022-12-11T19:36:49.610Z,7.95
2022-12-11T19:39:16.567Z,7.53
2022-12-11T19:41:43.532Z,7.78
2022-12-11T19:44:10.142Z,8.32
2022-12-11T19:46:36.767Z,8.07
2022-12-11T19:49:03.896Z,8.10
2022-12-11T19:51:33.370Z,8.75
2022-12-11T19:54:00.822Z,7.88
2022-12-11T19:56:27.190Z,9.07
2022-12-11T19:58:53.668Z,8.95
2022-12-11T20:01:25.861Z,12.32
2022-12-11T20:03:53.623Z,13.15
2022-12-11T20:06:20.169Z,14.35
2022-12-11T20:08:47.035Z,9.77
2022-12-11T20:11:18.475Z,8.73
2022-12-11T20:13:46.601Z,8.15
2022-12-11T20:16:14.080Z,7.82
2022-12-11T20:18:40.506Z,7.88
2022-12-11T20:21:09.651Z,6.72
2022-12-11T20:23:36.198Z,7.93
2022-12-11T20:26:07.598Z,7.88
2022-12-11T20:28:34.034Z,7.60
2022-12-11T20:31:08.606Z,8.35
2022-12-11T20:33:35.276Z,7.68
2022-12-11T20:36:02.286Z,8.57
2022-12-11T20:38:34.107Z,9.65
2022-12-11T20:41:00.836Z,8.10
2022-12-11T20:43:27.381Z,7.97
2022-12-11T20:45:53.731Z,8.93
2022-12-11T20:48:20.102Z,7.97
2022-12-11T20:50:46.529Z,7.03
2022-12-11T20:53:12.997Z,7.60
2022-12-11T20:55:40.495Z,7.80
2022-12-11T20:58:07.302Z,8.50
2022-12-11T21:00:33.902Z,9.23
2022-12-11T21:03:00.333Z,8.77
2022-12-11T21:05:26.902Z,8.73
2022-12-11T21:07:54.395Z,7.43
2022-12-11T21:10:21.203Z,9.52
2022-12-11T21:12:47.716Z,9.98
2022-12-11T21:15:14.527Z,9.95
2022-12-11T21:17:41.316Z,8.93
2022-12-11T21:20:08.120Z,7.82
2022-12-11T21:22:34.768Z,8.82
2022-12-11T21:25:01.706Z,8.48
2022-12-11T21:27:28.147Z,8.77
2022-12-11T21:29:54.832Z,8.77
2022-12-11T21:32:21.507Z,9.43
2022-12-11T21:34:50.391Z,7.65
2022-12-11T21:37:17.361Z,7.93
2022-12-11T21:39:44.045Z,8.40
2022-12-11T21:42:10.447Z,8.60
2022-12-11T21:47:23.148Z,8.75
2022-12-11T21:49:49.766Z,8.50
2022-12-11T21:52:16.163Z,9.00
2022-12-11T21:54:42.569Z,8.05
2022-12-11T21:57:08.897Z,7.70
2022-12-11T21:59:35.445Z,8.63
2022-12-11T22:02:01.817Z,8.10
2022-12-11T22:04:28.298Z,7.15
2022-12-11T22:06:54.656Z,7.10
2022-12-11T22:09:21.003Z,7.25
2022-12-11T22:11:47.959Z,6.15
2022-12-11T22:14:16.637Z,6.88
2022-12-11T22:16:43.924Z,18.92
2022-12-11T22:19:10.648Z,10.50
2022-12-11T22:21:37.252Z,9.65
2022-12-11T22:24:03.903Z,7.07
2022-12-11T22:26:30.516Z,6.38
2022-12-11T22:28:57.163Z,6.97
2022-12-11T22:31:25.704Z,5.65
2022-12-11T22:33:53.466Z,7.45
2022-12-11T22:36:20.362Z,7.53
2022-12-11T22:38:47.633Z,7.82
2022-12-11T22:41:22.464Z,10.80
2022-12-11T22:43:49.543Z,7.90
2022-12-11T22:46:18.448Z,7.03
2022-12-11T22:48:44.898Z,7.47
2022-12-11T22:51:11.933Z,7.95
2022-12-11T22:53:38.366Z,8.15
2022-12-11T22:56:06.960Z,8.85
2022-12-11T22:58:33.555Z,7.90
2022-12-11T23:01:00.207Z,7.57
2022-12-11T23:03:26.811Z,7.70
2022-12-11T23:05:53.415Z,6.63
2022-12-11T23:08:21.374Z,6.78
2022-12-11T23:10:48.191Z,6.47
2022-12-11T23:13:14.541Z,6.15
2022-12-11T23:15:41.037Z,5.68
2022-12-11T23:18:07.699Z,6.13
2022-12-11T23:20:34.191Z,4.85
2022-12-11T23:23:00.771Z,5.00
2022-12-11T23:25:27.204Z,4.97
2022-12-11T23:27:54.417Z,6.00
2022-12-11T23:30:21.285Z,6.50
2022-12-11T23:32:47.670Z,7.60
2022-12-11T23:35:14.334Z,5.53
2022-12-11T23:37:40.951Z,7.47
2022-12-11T23:40:08.398Z,5.90
2022-12-11T23:42:35.404Z,6.50
2022-12-11T23:45:02.319Z,6.78
2022-12-11T23:47:28.669Z,5.32
2022-12-11T23:49:55.154Z,6.47
2022-12-11T23:52:21.575Z,5.72
2022-12-11T23:54:47.939Z,6.22
2022-12-11T23:57:14.324Z,6.80
2022-12-11T23:59:40.642Z,6.97
